32 min.
Landingsbaan Tegenwind Zijwind Lengte
10 kt 4 kt 2.957 m
5 kt 9 kt 1.999 m
METAR EHLW 151725Z AUTO 03011KT 360V070 9999 OVC180 07/M00 Q1031 BLU

METAR uitleg | Integreren

METAR Leeuwarden Air Base

Leeuwarden Air Base is een middelgroot vliegveld in Leeuwarden, Nederland. Het vliegveld heeft 2 landingsbanen: 5/23 (2.957 m) en 9/27

Dit rapport is opgesteld voor Leeuwarden Air Base op 15 april 2021 19:25, lokale tijd.

Vliegveldwaarnemingen

De wind staat vanuit de richting noordnoordoost (030°) met een snelheid van 11 kt. De windrichting varieert tussen noord (360°) en oostnoordoost (070°).

Het zicht is 10 km of meer.

Er is geheel bewolkt op 18.000 ft hoogte. De wolkenbasis, broken of meer, is 18.000 ft.

De temperatuur is 7 °C, met een gevoelstemperatuur van 2 °C. De luchtdruk op zeeniveau is 1031 hPa (QNH).

Daglichtperiode

De zon komt vandaag op om 06:36 en gaat onder om 20:37. Dit geldt voor Leeuwarden Air Base, de universele daglichtperiode kan anders zijn. Het verschil tussen de lokale tijd en UTC is +2 uur. Op dit moment is er sprake van zomertijd.

Historische gegevens

Doneren

Help je mee om Metar-Taf.com draaiend te houden?
Jouw bijdrage helpt om de site verder te ontwikkelen en om de kosten te betalen.

Nooit meer advertenties

Doneer je € 5 of meer? Dan laten we je nooit meer advertenties zien, als blijk van onze eeuwige dankbaarheid!
Log wel even in voordat je doneert

Wil je het vliegweer van Leeuwarden Air Base op jouw website? Meer info   Gratis!